Latest Weather Observations for Ernabella/Pukatja

IDD60801

Issued at 8:31 pm CST Friday 31 July 2015 (issued every 30 minutes, with the page automatically refreshed every 10 minutes)

About weather observations | Map of weather stations | Latest weather observations for NT | Other Formats
Station Details ID: 016097 Name: PUKATJA Lat: -26.26 Lon: 132.18 Height: 703.2 m
Data from the previous 72 hours. | See also: Recent months at Ernabella/Pukatja
Date/Time
CST
Temp
°C
App
Temp
°C
Dew
Point
Rel
Hum
%
Delta-T
°C
Wind Press
QNH
hPa
Press
MSL
hPa
Rain
since 9 am
mm
Dir
 
Spd
km/h
Gust
km/h
Spd
kts
Gust
kts
31/08:30pm 19.4 16.2 3.2 34 7.9 N 9 11 5 6 1019.2 - 0.0
31/08:00pm 18.6 17.4 4.8 40 6.9 CALM 0 0 0 0 1019.0 - 0.0
31/07:30pm 19.1 17.9 4.5 38 7.3 CALM 0 0 0 0 1018.9 - 0.0
31/07:00pm 20.3 17.7 4.4 35 8.0 N 7 9 4 5 1018.7 - 0.0
31/06:30pm 22.1 19.1 4.2 31 9.0 N 9 13 5 7 1018.5 - 0.0
31/06:00pm 24.1 20.4 4.5 28 10.1 N 13 20 7 11 1018.2 1017.7 0.0
31/05:30pm 25.2 20.6 3.8 25 10.9 NNW 17 24 9 13 1018.2 - 0.0
31/05:00pm 25.7 21.1 3.6 24 11.3 N 17 26 9 14 1018.1 - 0.0
31/04:30pm 26.4 21.9 4.2 24 11.5 N 17 24 9 13 1018.3 - 0.0
31/04:00pm 26.0 21.4 3.9 24 11.4 N 17 26 9 14 1018.6 - 0.0
31/03:30pm 26.6 21.9 3.2 22 12.0 NW 17 22 9 12 1018.8 - 0.0
31/03:00pm 26.1 21.4 3.4 23 11.6 N 17 30 9 16 1019.0 1018.5 0.0
31/02:30pm 26.2 21.4 2.8 22 11.8 NNW 17 28 9 15 1019.4 - 0.0
31/02:00pm 26.3 21.8 2.3 21 12.0 N 15 24 8 13 1019.9 - 0.0
31/01:30pm 26.7 22.2 1.9 20 12.4 N 15 20 8 11 1020.6 - 0.0
31/01:00pm 25.4 20.5 2.2 22 11.5 N 17 24 9 13 1021.2 - 0.0
31/12:30pm 25.4 20.5 2.2 22 11.5 N 17 26 9 14 1021.8 - 0.0
31/12:00pm 25.4 19.7 -0.6 18 12.3 N 19 26 10 14 1022.1 1021.7 0.0
31/11:30am 24.9 19.6 -3.5 15 12.7 N 15 20 8 11 1022.6 - 0.0
31/11:00am 24.2 19.1 -1.6 18 11.8 NNE 15 20 8 11 1022.8 - 0.0
31/10:30am 23.2 18.5 0.9 23 10.7 NE 15 20 8 11 1023.1 - 0.0
31/10:00am 22.1 18.8 0.0 23 10.3 ENE 7 9 4 5 1023.3 - 0.0
31/09:30am 19.9 16.6 0.4 27 9.0 ENE 7 9 4 5 1023.3 - 0.0
31/09:00am 17.4 14.6 -0.3 30 7.9 ENE 4 6 2 3 1023.2 1022.7 0.0
31/08:30am 14.4 11.9 3.5 48 5.1 ENE 6 9 3 5 1023.2 - 0.0
31/08:00am 10.8 7.6 3.1 59 3.5 E 9 9 5 5 1022.9 - 0.0
31/07:30am 7.9 5.1 3.0 71 2.2 E 7 9 4 5 1022.7 - 0.0
31/07:00am 8.8 7.2 2.4 64 2.8 CALM 0 0 0 0 1022.6 - 0.0
31/06:30am 9.2 6.4 2.3 62 3.0 ENE 6 7 3 4 1022.3 - 0.0
31/06:00am 11.0 7.9 0.1 47 4.6 ENE 6 7 3 4 1022.2 1021.8 0.0
31/05:30am 9.9 7.4 1.5 56 3.6 ENE 4 7 2 4 1021.9 - 0.0
31/05:00am 8.7 6.0 2.9 67 2.6 NNE 6 7 3 4 1022.0 - 0.0
31/04:30am 9.4 7.8 2.7 63 3.0 CALM 0 0 0 0 1022.1 - 0.0
31/04:00am 9.0 7.6 3.4 68 2.5 CALM 0 2 0 1 1022.3 - 0.0
31/03:30am 9.8 6.8 2.2 59 3.4 E 7 7 4 4 1022.2 - 0.0
31/03:00am 8.8 5.6 3.2 68 2.5 E 9 11 5 6 1022.5 1022.1 0.0
31/02:30am 9.8 6.9 2.4 60 3.3 E 7 7 4 4 1022.6 - 0.0
31/02:00am 9.7 6.5 3.2 64 2.9 E 9 9 5 5 1022.8 - 0.0
31/01:30am 9.9 7.0 2.7 61 3.2 E 7 9 4 5 1023.2 - 0.0
31/01:00am 10.1 8.7 3.8 65 2.9 CALM 0 0 0 0 1023.2 - 0.0
31/12:30am 11.0 8.1 2.6 56 3.8 E 7 9 4 5 1023.5 - 0.0
31/12:00am 11.9 10.4 2.9 54 4.1 CALM 0 0 0 0 1023.7 1023.3 0.0
 
Date/Time
CST
Temp
°C
App
Temp
°C
Dew
Point
Rel
Hum
%
Delta-T
°C
Wind Press
QNH
hPa
Press
MSL
hPa
Rain
since 9 am
mm
Dir
 
Spd
km/h
Gust
km/h
Spd
kts
Gust
kts
30/11:30pm 13.4 11.4 0.1 40 5.8 CALM 0 0 0 0 1024.0 - 0.0
30/11:00pm 12.1 9.4 2.8 53 4.2 NE 6 7 3 4 1024.1 - 0.0
30/10:30pm 13.0 11.2 1.4 45 5.2 CALM 0 0 0 0 1024.1 - 0.0
30/10:00pm 13.4 11.7 1.7 45 5.3 CALM 0 0 0 0 1024.2 - 0.0
30/09:30pm 14.0 12.3 1.6 43 5.6 CALM 0 0 0 0 1024.0 - 0.0
30/09:00pm 14.8 12.4 2.0 42 5.8 NE 4 7 2 4 1023.9 1023.5 0.0
30/08:30pm 15.0 13.0 2.5 43 5.8 SW 2 6 1 3 1023.8 - 0.0
30/08:00pm 17.5 15.4 1.5 34 7.4 ENE 2 7 1 4 1023.5 - 0.0
30/07:30pm 17.9 16.0 0.6 31 7.9 CALM 0 6 0 3 1023.2 - 0.0
30/07:00pm 18.4 16.5 0.5 30 8.2 CALM 0 0 0 0 1022.9 - 0.0
30/06:30pm 19.8 18.0 1.3 29 8.7 CALM 0 0 0 0 1022.6 - 0.0
30/06:00pm 22.1 17.9 -1.2 21 10.6 NNW 11 13 6 7 1022.3 1021.9 0.0
30/05:30pm 23.9 19.7 -1.1 19 11.6 N 11 19 6 10 1022.2 - 0.0
30/05:00pm 25.0 22.2 3.0 24 11.1 SSW 7 9 4 5 1022.1 - 0.0
30/04:30pm 25.3 22.5 3.3 24 11.2 WSW 7 13 4 7 1022.0 - 0.0
30/04:00pm 24.6 21.7 1.5 22 11.3 E 6 9 3 5 1022.0 - 0.0
30/03:30pm 25.4 22.3 1.5 21 11.7 W 7 11 4 6 1022.3 - 0.0
30/03:00pm 24.9 21.3 0.4 20 11.7 WSW 9 17 5 9 1022.5 1022.1 0.0
30/02:30pm 25.2 21.9 0.0 19 12.0 SE 7 11 4 6 1022.7 - 0.0
30/02:00pm 24.1 20.8 0.4 21 11.3 ENE 7 11 4 6 1023.1 - 0.0
30/01:30pm 23.5 19.8 -0.1 21 11.1 S 9 19 5 10 1023.6 - 0.0
30/01:00pm 23.3 19.1 -0.9 20 11.2 SE 11 20 6 11 1024.3 - 0.0
30/12:30pm 22.7 18.6 -2.8 18 11.3 SSW 9 13 5 7 1024.7 - 0.0
30/12:00pm 22.2 18.7 -2.5 19 10.9 E 6 9 3 5 1025.3 1024.9 0.0
30/11:30am 20.4 16.5 -4.7 18 10.5 W 7 13 4 7 1025.9 - 0.0
30/11:00am 19.7 15.9 -5.3 18 10.3 NW 6 9 3 5 1026.2 - 0.0
30/10:30am 18.1 14.1 -5.2 20 9.5 NNW 7 11 4 6 1026.7 - 0.0
30/10:00am 16.4 13.1 -4.2 24 8.4 NNW 4 7 2 4 1026.8 - 0.0
30/09:30am 15.3 12.4 -4.1 26 7.8 NE 2 7 1 4 1026.8 - 0.0
30/09:00am 13.4 10.1 -4.7 28 7.0 ENE 4 7 2 4 1026.5 1026.1 0.0
30/08:30am 11.8 8.8 -1.7 39 5.6 NE 4 7 2 4 1026.0 - 0.0
30/08:00am 9.0 5.5 -1.1 49 4.1 E 7 7 4 4 1025.5 - 0.0
30/07:30am 7.3 3.8 -3.0 48 3.9 ENE 6 7 3 4 1025.2 - 0.0
30/07:00am 6.8 3.1 -2.9 50 3.7 E 7 9 4 5 1024.9 - 0.0
30/06:30am 6.0 2.5 -1.6 58 2.9 E 7 9 4 5 1025.1 - 0.0
30/06:00am 7.2 3.6 -3.6 46 4.0 E 6 9 3 5 1025.0 1024.6 0.0
30/05:30am 8.6 5.3 -4.2 40 4.8 E 4 9 2 5 1025.0 - 0.0
30/05:00am 9.2 4.9 -4.4 38 5.1 ENE 9 13 5 7 1024.7 - 0.0
30/04:30am 9.2 4.9 -4.4 38 5.1 E 9 11 5 6 1024.6 - 0.0
30/04:00am 8.0 3.9 -3.2 45 4.3 E 9 11 5 6 1024.4 - 0.0
30/03:30am 5.6 2.0 -1.8 59 2.8 E 7 11 4 6 1024.6 - 0.0
30/03:00am 8.7 6.3 -2.9 44 4.5 CALM 0 0 0 0 1024.9 1024.5 0.0
30/02:30am 8.4 4.9 -2.5 46 4.2 E 6 7 3 4 1025.1 - 0.0
30/02:00am 8.3 4.6 -2.9 45 4.3 E 7 11 4 6 1025.2 - 0.0
30/01:30am 9.3 5.7 -3.3 41 4.9 ESE 6 7 3 4 1025.4 - 0.0
30/01:00am 6.6 2.7 -1.5 56 3.2 ENE 9 11 5 6 1025.4 - 0.0
30/12:30am 9.0 5.6 -2.3 45 4.5 E 6 7 3 4 1025.7 - 0.0
30/12:00am 9.3 5.2 -3.3 41 4.8 E 9 11 5 6 1026.2 1025.8 0.0
 
Date/Time
CST
Temp
°C
App
Temp
°C
Dew
Point
Rel
Hum
%
Delta-T
°C
Wind Press
QNH
hPa
Press
MSL
hPa
Rain
since 9 am
mm
Dir
 
Spd
km/h
Gust
km/h
Spd
kts
Gust
kts
29/11:30pm 9.6 5.3 -4.7 36 5.4 E 9 11 5 6 1026.2 - 0.0
29/11:00pm 8.0 3.9 -2.9 46 4.2 E 9 11 5 6 1026.2 - 0.0
29/10:30pm 8.9 4.8 -3.3 42 4.7 ESE 9 11 5 6 1026.2 - 0.0
29/10:00pm 9.1 6.2 -1.3 48 4.2 E 4 11 2 6 1026.3 - 0.0
29/09:30pm 10.3 6.3 -6.1 31 6.0 E 7 11 4 6 1026.2 - 0.0
29/09:00pm 10.8 8.3 -4.4 34 5.8 CALM 0 0 0 0 1026.0 1025.7 0.0
29/08:30pm 10.9 7.9 -5.5 31 6.1 ENE 2 6 1 3 1025.9 - 0.0
29/08:00pm 11.3 8.3 -5.6 30 6.3 N 2 7 1 4 1025.9 - 0.0
29/07:30pm 12.3 9.5 -7.1 25 7.1 CALM 0 0 0 0 1025.7 - 0.0
29/07:00pm 12.7 9.3 -5.3 28 6.9 NW 4 7 2 4 1025.5 - 0.0
29/06:30pm 14.0 9.4 -7.4 22 7.9 N 9 9 5 5 1025.2 - 0.0
29/06:00pm 16.7 12.0 -9.2 16 9.5 NNW 9 11 5 6 1025.2 1024.8 0.0
29/05:30pm 18.1 12.5 -10.7 13 10.4 NNW 13 17 7 9 1025.0 - 0.0
29/05:00pm 18.5 12.8 -12.5 11 10.9 NNW 13 20 7 11 1024.7 - 0.0
29/04:30pm 18.7 13.1 -11.2 12 10.8 NNW 13 20 7 11 1024.8 - 0.0
29/04:00pm 18.8 13.5 -12.2 11 11.0 N 11 19 6 10 1024.9 - 0.0
29/03:30pm 18.7 13.0 -12.3 11 11.0 NNW 13 19 7 10 1024.9 - 0.0
29/03:00pm 18.4 11.9 -12.6 11 10.8 NNW 17 24 9 13 1025.1 1024.7 0.0
29/02:30pm 18.5 12.4 -12.5 11 10.9 N 15 24 8 13 1025.4 - 0.0
29/02:00pm 17.7 12.2 -10.1 14 10.2 NNW 13 20 7 11 1025.8 - 0.0
29/01:30pm 16.9 11.8 -5.5 21 8.9 N 13 20 7 11 1026.4 - 0.0
29/01:00pm 16.4 10.9 -5.3 22 8.6 N 15 22 8 12 1027.1 - 0.0
29/12:30pm 15.6 10.2 -4.9 24 8.2 N 15 20 8 11 1027.8 - 0.0
29/12:00pm 14.7 9.8 -3.6 28 7.4 NNW 13 20 7 11 1028.3 1028.0 0.0
29/11:30am 13.9 9.0 -3.8 29 7.1 N 13 22 7 12 1028.3 - 0.0
29/11:00am 12.2 6.3 -2.0 37 5.8 NNE 19 24 10 13 1028.7 - 0.0
29/10:30am 11.1 5.0 -2.3 39 5.4 NNE 20 28 11 15 1029.0 - 0.0
29/10:00am 10.0 3.5 -2.3 42 4.9 NNE 22 30 12 16 1029.4 - 0.0
29/09:30am 8.7 1.4 -2.9 44 4.5 NNE 26 35 14 19 1029.4 - 0.0
29/09:00am 8.1 1.6 -2.5 47 4.1 NNE 22 32 12 17 1029.3 1028.9 0.0
29/08:30am 7.1 2.0 -2.3 51 3.6 NE 15 20 8 11 1029.4 - 0.0
29/08:00am 6.0 0.4 -2.6 54 3.3 NNE 17 28 9 15 1029.2 - 0.0
29/07:30am 5.4 -0.7 -2.7 56 3.0 NNE 20 24 11 13 1029.0 - 0.0
29/07:00am 5.9 -1.8 -2.7 54 3.2 N 28 35 15 19 1028.9 - 0.0
29/06:30am 5.4 1.4 -2.4 57 2.9 NNE 9 17 5 9 1029.0 - 0.0
29/06:00am 6.0 0.5 -1.9 57 3.0 NNE 17 22 9 12 1028.6 1028.3 0.0
29/05:30am 6.4 1.3 -1.7 56 3.1 NNE 15 24 8 13 1028.5 - 0.0
29/05:00am 6.8 0.4 -1.6 55 3.3 NNE 22 30 12 16 1028.4 - 0.0
29/04:30am 6.7 1.3 -1.7 55 3.3 N 17 24 9 13 1028.5 - 0.0
29/04:00am 5.1 1.8 -1.1 64 2.4 WNW 6 9 3 5 1028.8 - 0.0
29/03:30am 4.8 0.2 -1.4 64 2.4 NE 13 19 7 10 1028.7 - 0.0
29/03:00am 5.5 2.2 -1.2 62 2.6 N 6 11 3 6 1029.6 1029.3 0.0
29/02:30am 5.2 2.0 -0.8 65 2.4 S 6 9 3 5 1029.6 - 0.0
29/02:00am 5.0 0.1 -0.8 66 2.3 NE 15 19 8 10 1029.8 - 0.0
29/01:30am 5.5 -0.2 -1.0 63 2.5 NE 19 22 10 12 1029.6 - 0.0
29/01:00am 5.8 3.0 -0.7 63 2.6 ESE 4 7 2 4 1029.8 - 0.0
29/12:30am 5.0 1.2 -0.8 66 2.3 E 9 13 5 7 1029.4 - 0.0
29/12:00am 5.4 1.6 -0.6 65 2.3 E 9 11 5 6 1029.8 1029.5 0.0
 
Date/Time
CST
Temp
°C
App
Temp
°C
Dew
Point
Rel
Hum
%
Delta-T
°C
Wind Press
QNH
hPa
Press
MSL
hPa
Rain
since 9 am
mm
Dir
 
Spd
km/h
Gust
km/h
Spd
kts
Gust
kts
28/11:30pm 5.5 2.1 -0.8 64 2.5 ENE 7 9 4 5 1030.1 - 0.0
28/11:00pm 6.0 2.2 -0.7 62 2.7 E 9 11 5 6 1030.1 - 0.0
28/10:30pm 6.1 2.3 -0.6 62 2.7 E 9 11 5 6 1030.3 - 0.0
28/10:00pm 7.0 3.2 -0.4 59 3.0 E 9 9 5 5 1030.5 - 0.0
28/09:30pm 7.0 3.6 -0.4 59 3.0 ESE 7 9 4 5 1030.4 - 0.0
28/09:00pm 7.4 4.0 -0.5 57 3.2 E 7 9 4 5 1030.4 1030.1 0.0

Other Formats:

Comma delimited format used in spreadsheet applications
http://www.bom.gov.au/fwo/IDD60801/IDD60801.94474.axf

JavaScript Object Notation format (JSON) in row-major order
http://www.bom.gov.au/fwo/IDD60801/IDD60801.94474.json